createdAt,value
2022-12-22T00:00:38.181Z,12.20
2022-12-22T00:03:31.029Z,12.20
2022-12-22T00:06:18.488Z,12.10
2022-12-22T00:09:05.884Z,12.10
2022-12-22T00:11:51.717Z,12.10
2022-12-22T00:14:37.758Z,12.10
2022-12-22T00:17:38.243Z,12.10
2022-12-22T00:20:32.211Z,12.20
2022-12-22T00:23:19.651Z,12.10
2022-12-22T00:26:05.864Z,12.20
2022-12-22T00:28:52.249Z,12.10
2022-12-22T00:31:39.269Z,12.20
2022-12-22T00:34:32.435Z,12.10
2022-12-22T00:37:18.772Z,11.90
2022-12-22T00:40:08.273Z,11.90
2022-12-22T00:42:54.000Z,11.90
2022-12-22T00:45:39.901Z,11.90
2022-12-22T00:48:30.075Z,11.80
2022-12-22T00:51:16.527Z,11.70
2022-12-22T00:54:02.252Z,11.80
2022-12-22T00:56:49.641Z,11.80
2022-12-22T00:59:35.391Z,11.80
2022-12-22T01:02:21.350Z,11.80
2022-12-22T01:05:07.107Z,11.80
2022-12-22T01:07:52.841Z,11.80
2022-12-22T01:10:41.016Z,11.70
2022-12-22T01:13:30.121Z,11.60
2022-12-22T01:16:15.901Z,11.70
2022-12-22T01:19:01.757Z,11.60
2022-12-22T01:21:47.596Z,11.70
2022-12-22T01:24:35.282Z,11.80
2022-12-22T01:27:21.361Z,11.70
2022-12-22T01:30:08.340Z,11.80
2022-12-22T01:32:53.605Z,11.80
2022-12-22T01:35:40.903Z,11.80
2022-12-22T01:38:26.394Z,11.90
2022-12-22T01:41:12.469Z,11.90
2022-12-22T01:43:58.194Z,11.90
2022-12-22T01:46:47.632Z,11.90
2022-12-22T01:49:37.774Z,12.00
2022-12-22T01:52:24.636Z,12.00
2022-12-22T01:55:10.837Z,12.10
2022-12-22T01:57:56.543Z,12.00
2022-12-22T02:00:43.751Z,12.10
2022-12-22T02:03:39.665Z,12.10
2022-12-22T02:06:37.584Z,12.10
2022-12-22T02:09:41.697Z,12.10
2022-12-22T02:12:35.957Z,12.20
2022-12-22T02:15:32.080Z,12.20
2022-12-22T02:18:25.599Z,12.20
2022-12-22T02:21:19.537Z,12.30
2022-12-22T02:24:27.403Z,12.30
2022-12-22T02:27:17.551Z,12.30
2022-12-22T02:30:08.981Z,12.20
2022-12-22T02:32:56.430Z,12.30
2022-12-22T02:35:42.720Z,12.30
2022-12-22T02:38:37.685Z,12.30
2022-12-22T02:41:33.738Z,12.30
2022-12-22T02:44:37.532Z,12.40
2022-12-22T02:47:29.452Z,12.40
2022-12-22T02:50:19.028Z,12.50
2022-12-22T02:53:06.407Z,12.50
2022-12-22T02:55:52.436Z,12.50
2022-12-22T02:58:38.843Z,12.60
2022-12-22T03:01:26.154Z,12.60
2022-12-22T03:04:11.682Z,12.60
2022-12-22T03:06:57.112Z,12.70
2022-12-22T03:09:42.675Z,12.70
2022-12-22T03:12:28.299Z,12.70
2022-12-22T03:15:13.815Z,12.80
2022-12-22T03:18:00.623Z,12.80
2022-12-22T03:20:46.629Z,12.80
2022-12-22T03:23:31.914Z,12.80
2022-12-22T03:26:00.308Z,12.80
2022-12-22T03:28:29.807Z,12.80
2022-12-22T03:31:00.294Z,12.80
2022-12-22T03:33:31.346Z,12.80
2022-12-22T03:36:00.000Z,12.80
2022-12-22T03:38:28.513Z,12.80
2022-12-22T03:40:56.682Z,12.80
2022-12-22T03:43:42.397Z,12.80
2022-12-22T03:46:30.266Z,12.80
2022-12-22T03:49:12.463Z,12.80
2022-12-22T03:51:43.814Z,12.70
2022-12-22T03:54:13.335Z,12.50
2022-12-22T03:56:42.175Z,12.50
2022-12-22T03:59:10.379Z,12.60
2022-12-22T04:01:41.063Z,12.60
2022-12-22T04:04:11.156Z,12.60
2022-12-22T04:06:39.864Z,12.60
2022-12-22T04:09:08.522Z,12.60
2022-12-22T04:11:54.104Z,12.60
2022-12-22T04:14:23.718Z,12.70
2022-12-22T04:16:54.848Z,12.80
2022-12-22T04:19:25.184Z,12.80
2022-12-22T04:21:53.368Z,12.80
2022-12-22T04:24:22.375Z,12.80
2022-12-22T04:26:50.923Z,12.80
2022-12-22T04:29:19.145Z,12.80
2022-12-22T04:31:47.354Z,12.80
2022-12-22T04:34:15.591Z,12.80
2022-12-22T04:36:45.129Z,12.80
2022-12-22T04:39:13.247Z,12.80
2022-12-22T04:41:41.429Z,12.80
2022-12-22T04:44:09.601Z,12.80
2022-12-22T04:46:37.712Z,12.80
2022-12-22T04:49:05.900Z,12.80
2022-12-22T04:51:34.070Z,12.80
2022-12-22T04:54:03.650Z,12.80
2022-12-22T04:56:31.817Z,12.80
2022-12-22T04:58:59.992Z,12.80
2022-12-22T05:01:29.337Z,12.80
2022-12-22T05:03:57.581Z,12.80
2022-12-22T05:06:25.735Z,12.80
2022-12-22T05:08:53.933Z,12.80
2022-12-22T05:11:23.538Z,12.80
2022-12-22T05:13:51.729Z,12.80
2022-12-22T05:16:19.894Z,12.80
2022-12-22T05:18:48.127Z,12.80
2022-12-22T05:21:18.008Z,12.80
2022-12-22T05:23:46.621Z,12.80
2022-12-22T05:26:15.697Z,12.80
2022-12-22T05:28:46.427Z,12.70
2022-12-22T05:31:18.415Z,12.70
2022-12-22T05:33:46.728Z,12.70
2022-12-22T05:36:15.188Z,12.60
2022-12-22T05:38:44.556Z,12.50
2022-12-22T05:41:12.910Z,12.50
2022-12-22T05:43:41.041Z,12.60
2022-12-22T05:46:12.645Z,12.50
2022-12-22T05:48:40.867Z,12.50
2022-12-22T05:51:10.205Z,12.50
2022-12-22T05:53:39.302Z,12.50
2022-12-22T05:56:08.645Z,12.50
2022-12-22T05:58:39.209Z,12.50
2022-12-22T06:01:08.073Z,12.60
2022-12-22T06:03:37.767Z,12.50
2022-12-22T06:06:06.627Z,12.60
2022-12-22T06:08:34.820Z,12.50
2022-12-22T06:11:02.988Z,12.50
2022-12-22T06:13:31.119Z,12.60
2022-12-22T06:15:59.319Z,12.60
2022-12-22T06:18:28.334Z,12.60
2022-12-22T06:20:57.901Z,12.60
2022-12-22T06:23:26.037Z,12.60
2022-12-22T06:25:58.075Z,12.60
2022-12-22T06:28:26.913Z,12.50
2022-12-22T06:30:55.174Z,12.50
2022-12-22T06:33:23.388Z,12.50
2022-12-22T06:35:57.957Z,12.50
2022-12-22T06:38:28.800Z,12.50
2022-12-22T06:40:57.105Z,12.50
2022-12-22T06:43:24.615Z,12.50
2022-12-22T06:45:52.886Z,12.50
2022-12-22T06:48:21.379Z,12.50
2022-12-22T06:50:49.537Z,12.50
2022-12-22T06:53:18.013Z,12.50
2022-12-22T06:55:47.534Z,12.50
2022-12-22T06:58:15.691Z,12.50
2022-12-22T07:00:45.545Z,12.50
2022-12-22T07:03:13.987Z,12.50
2022-12-22T07:05:42.346Z,12.50
2022-12-22T07:08:10.491Z,12.50
2022-12-22T07:10:56.366Z,12.50
2022-12-22T07:13:27.506Z,12.50
2022-12-22T07:16:00.474Z,12.50
2022-12-22T07:18:31.133Z,12.50
2022-12-22T07:21:01.153Z,12.50
2022-12-22T07:23:29.367Z,12.40
2022-12-22T07:25:57.732Z,12.30
2022-12-22T07:28:27.274Z,12.30
2022-12-22T07:30:56.184Z,12.30
2022-12-22T07:33:24.392Z,12.30
2022-12-22T07:36:02.668Z,12.30
2022-12-22T07:38:31.043Z,12.30
2022-12-22T07:41:04.814Z,12.30
2022-12-22T07:43:34.282Z,12.30
2022-12-22T07:46:02.496Z,12.30
2022-12-22T07:48:47.989Z,12.30
2022-12-22T07:51:16.163Z,12.30
2022-12-22T07:53:45.529Z,12.30
2022-12-22T07:56:14.228Z,12.30
2022-12-22T07:58:43.809Z,12.30
2022-12-22T08:01:12.023Z,12.30
2022-12-22T08:03:40.150Z,12.30
2022-12-22T08:06:09.100Z,12.30
2022-12-22T08:08:37.223Z,12.20
2022-12-22T08:11:06.100Z,12.20
2022-12-22T08:13:34.349Z,12.10
2022-12-22T08:16:06.405Z,12.10
2022-12-22T08:18:34.891Z,12.10
2022-12-22T08:21:04.073Z,12.10
2022-12-22T08:23:32.844Z,12.10
2022-12-22T08:26:04.744Z,12.00
2022-12-22T08:28:35.448Z,12.00
2022-12-22T08:31:05.676Z,12.00
2022-12-22T08:33:34.025Z,12.00
2022-12-22T08:36:07.791Z,12.00
2022-12-22T08:38:37.279Z,12.00
2022-12-22T08:41:05.698Z,12.10
2022-12-22T08:43:34.763Z,12.10
2022-12-22T08:46:03.161Z,12.20
2022-12-22T08:48:32.823Z,12.10
2022-12-22T08:51:01.256Z,12.20
2022-12-22T08:54:03.337Z,12.10
2022-12-22T08:56:17.535Z,12.10
2022-12-22T08:58:45.800Z,12.20
2022-12-22T09:01:18.588Z,12.20
2022-12-22T09:03:51.920Z,12.20
2022-12-22T09:06:26.719Z,12.10
2022-12-22T09:08:56.685Z,12.20
2022-12-22T09:11:24.977Z,12.30
2022-12-22T09:13:54.544Z,12.30
2022-12-22T09:16:23.362Z,12.40
2022-12-22T09:18:53.012Z,12.40
2022-12-22T09:21:21.361Z,12.30
2022-12-22T09:23:49.605Z,12.30
2022-12-22T09:26:19.705Z,12.30
2022-12-22T09:28:50.447Z,12.30
2022-12-22T09:31:19.355Z,12.30
2022-12-22T09:33:47.848Z,12.20
2022-12-22T09:36:19.994Z,12.10
2022-12-22T09:38:48.685Z,12.00
2022-12-22T09:41:19.753Z,12.10
2022-12-22T09:43:48.104Z,12.10
2022-12-22T09:46:21.153Z,12.10
2022-12-22T09:48:49.575Z,12.20
2022-12-22T09:51:26.078Z,12.10
2022-12-22T09:53:59.372Z,12.10
2022-12-22T09:56:28.774Z,12.20
2022-12-22T09:58:57.293Z,12.20
2022-12-22T10:01:40.472Z,12.20
2022-12-22T10:04:17.456Z,12.20
2022-12-22T10:06:52.657Z,12.20
2022-12-22T10:12:18.516Z,12.10
2022-12-22T10:14:49.116Z,12.10
2022-12-22T10:17:20.537Z,12.10
2022-12-22T10:19:51.090Z,12.10
2022-12-22T10:22:29.807Z,12.20
2022-12-22T10:24:58.533Z,12.20
2022-12-22T10:27:30.862Z,12.20
2022-12-22T10:30:21.460Z,12.20
2022-12-22T10:33:03.968Z,12.20
2022-12-22T10:35:50.669Z,12.20
2022-12-22T10:38:26.325Z,12.20
2022-12-22T10:41:02.108Z,12.20
2022-12-22T10:43:33.540Z,12.30
2022-12-22T10:46:03.432Z,12.30
2022-12-22T10:48:34.555Z,12.30
2022-12-22T10:51:05.384Z,12.30
2022-12-22T10:53:45.560Z,12.30
2022-12-22T10:56:23.191Z,12.40
2022-12-22T10:58:53.892Z,12.40
2022-12-22T11:01:28.297Z,12.40
2022-12-22T11:03:56.810Z,12.40
2022-12-22T11:06:25.145Z,12.50
2022-12-22T11:09:01.466Z,12.50
2022-12-22T11:11:45.852Z,12.40
2022-12-22T11:14:21.395Z,12.40
2022-12-22T11:16:56.773Z,12.40
2022-12-22T11:19:47.000Z,12.40
2022-12-22T11:22:29.723Z,12.40
2022-12-22T11:25:16.693Z,12.40
2022-12-22T11:27:56.917Z,12.40
2022-12-22T11:30:32.220Z,12.30
2022-12-22T11:33:17.157Z,12.30
2022-12-22T11:35:58.671Z,12.30
2022-12-22T11:38:37.520Z,12.20
2022-12-22T11:41:19.805Z,12.30
2022-12-22T11:44:03.121Z,12.10
2022-12-22T11:46:39.367Z,12.10
2022-12-22T11:49:26.253Z,12.10
2022-12-22T11:52:08.585Z,12.10
2022-12-22T11:55:03.015Z,12.20
2022-12-22T11:57:40.267Z,12.20
2022-12-22T12:00:12.418Z,12.20
2022-12-22T12:03:12.430Z,12.30
2022-12-22T12:06:09.211Z,12.30
2022-12-22T12:08:49.660Z,12.30
2022-12-22T12:11:24.620Z,12.30
2022-12-22T12:14:01.865Z,12.30
2022-12-22T12:16:39.270Z,12.40
2022-12-22T12:19:30.337Z,12.40
2022-12-22T12:22:01.155Z,12.40
2022-12-22T12:24:48.866Z,12.40
2022-12-22T12:27:30.037Z,12.70
2022-12-22T12:30:37.080Z,12.70
2022-12-22T12:32:57.653Z,12.70
2022-12-22T12:35:37.076Z,12.80
2022-12-22T12:38:32.311Z,12.80
2022-12-22T12:41:07.953Z,12.90
2022-12-22T12:43:36.962Z,12.80
2022-12-22T12:46:56.567Z,12.90
2022-12-22T12:49:54.004Z,12.70
2022-12-22T12:53:17.945Z,12.80
2022-12-22T12:56:10.249Z,12.70
2022-12-22T12:58:53.094Z,12.70
2022-12-22T13:02:02.059Z,12.60
2022-12-22T13:05:12.887Z,12.50
2022-12-22T13:08:19.900Z,12.30
2022-12-22T13:10:51.343Z,12.20
2022-12-22T13:13:45.830Z,12.00
2022-12-22T13:16:32.294Z,11.90
2022-12-22T13:19:05.772Z,11.90
2022-12-22T13:21:53.027Z,11.90
2022-12-22T13:24:29.933Z,11.90
2022-12-22T13:27:04.661Z,11.90
2022-12-22T13:29:45.303Z,11.90
2022-12-22T13:32:22.248Z,12.10
2022-12-22T13:37:50.403Z,11.90
2022-12-22T13:40:21.337Z,11.80
2022-12-22T13:42:52.420Z,11.80
2022-12-22T13:45:32.715Z,11.80
2022-12-22T13:48:02.982Z,11.70
2022-12-22T13:50:37.140Z,11.70
2022-12-22T13:53:08.772Z,11.80
2022-12-22T13:55:37.591Z,11.70
2022-12-22T13:58:10.002Z,11.70
2022-12-22T14:00:38.297Z,11.80
2022-12-22T14:03:41.716Z,11.70
2022-12-22T14:06:22.386Z,11.70
2022-12-22T14:08:50.569Z,11.60
2022-12-22T14:11:18.861Z,11.50
2022-12-22T14:13:47.230Z,11.50
2022-12-22T14:16:16.178Z,11.40
2022-12-22T14:18:44.435Z,11.30
2022-12-22T14:21:13.580Z,11.30
2022-12-22T14:23:44.214Z,11.30
2022-12-22T14:26:19.004Z,11.30
2022-12-22T14:28:53.233Z,11.30
2022-12-22T14:31:21.860Z,11.30
2022-12-22T14:33:54.585Z,11.30
2022-12-22T14:36:24.766Z,11.30
2022-12-22T14:38:55.941Z,11.40
2022-12-22T14:41:47.729Z,11.40
2022-12-22T14:44:17.695Z,11.40
2022-12-22T14:46:49.263Z,11.40
2022-12-22T14:49:20.293Z,11.30
2022-12-22T14:52:00.740Z,11.40
2022-12-22T14:54:31.001Z,11.60
2022-12-22T14:57:07.292Z,11.60
2022-12-22T14:59:39.805Z,11.70
2022-12-22T15:02:23.986Z,11.70
2022-12-22T15:05:08.074Z,11.60
2022-12-22T15:10:41.280Z,11.70
2022-12-22T15:13:18.403Z,11.70
2022-12-22T15:15:49.737Z,11.70
2022-12-22T15:18:21.002Z,11.60
2022-12-22T15:20:49.136Z,11.70
2022-12-22T15:23:17.715Z,11.70
2022-12-22T15:25:47.333Z,11.70
2022-12-22T15:28:15.690Z,11.70
2022-12-22T15:30:43.993Z,11.80
2022-12-22T15:33:14.739Z,11.80
2022-12-22T15:35:43.365Z,11.80
2022-12-22T15:38:14.767Z,11.80
2022-12-22T15:40:43.105Z,11.80
2022-12-22T15:43:53.538Z,11.80
2022-12-22T15:46:05.209Z,11.80
2022-12-22T15:48:35.574Z,11.80
2022-12-22T15:51:05.848Z,11.80
2022-12-22T15:53:34.963Z,11.80
2022-12-22T15:56:17.475Z,11.80
2022-12-22T15:58:48.299Z,11.80
2022-12-22T16:01:16.741Z,11.80
2022-12-22T16:03:45.136Z,11.80
2022-12-22T16:06:15.135Z,11.80
2022-12-22T16:08:47.163Z,11.80
2022-12-22T16:11:15.355Z,11.80
2022-12-22T16:13:43.699Z,11.70
2022-12-22T16:16:13.606Z,11.80
2022-12-22T16:18:41.885Z,11.80
2022-12-22T16:21:15.683Z,11.80
2022-12-22T16:23:47.397Z,11.80
2022-12-22T16:26:19.588Z,11.80
2022-12-22T16:28:48.791Z,11.90
2022-12-22T16:31:21.357Z,11.90
2022-12-22T16:33:51.494Z,11.90
2022-12-22T16:36:21.436Z,11.80
2022-12-22T16:38:50.546Z,11.80
2022-12-22T16:41:25.635Z,11.80
2022-12-22T16:44:03.801Z,11.90
2022-12-22T16:46:39.936Z,11.90
2022-12-22T16:49:10.829Z,12.00
2022-12-22T16:51:47.465Z,12.00
2022-12-22T16:54:16.948Z,11.90
2022-12-22T16:56:47.416Z,12.00
2022-12-22T16:59:17.836Z,12.00
2022-12-22T17:01:52.303Z,12.00
2022-12-22T17:04:23.906Z,11.90
2022-12-22T17:06:54.566Z,11.90
2022-12-22T17:09:29.923Z,11.80
2022-12-22T17:12:00.833Z,11.70
2022-12-22T17:14:33.544Z,11.50
2022-12-22T17:17:04.068Z,11.50
2022-12-22T17:19:33.804Z,11.50
2022-12-22T17:22:03.282Z,11.40
2022-12-22T17:24:32.381Z,11.40
2022-12-22T17:27:06.127Z,11.50
2022-12-22T17:29:36.704Z,11.50
2022-12-22T17:32:08.001Z,11.50
2022-12-22T17:34:37.871Z,11.50
2022-12-22T17:37:13.774Z,11.60
2022-12-22T17:39:43.394Z,11.60
2022-12-22T17:42:20.299Z,11.70
2022-12-22T17:44:49.848Z,11.80
2022-12-22T17:47:29.035Z,11.80
2022-12-22T17:50:02.093Z,11.80
2022-12-22T17:52:35.165Z,11.80
2022-12-22T17:55:06.181Z,11.80
2022-12-22T17:57:38.049Z,11.80
2022-12-22T18:00:18.359Z,11.90
2022-12-22T18:02:49.662Z,11.90
2022-12-22T18:05:20.395Z,11.90
2022-12-22T18:07:51.307Z,11.90
2022-12-22T18:10:27.744Z,11.90
2022-12-22T18:12:58.481Z,11.90
2022-12-22T18:15:30.110Z,12.00
2022-12-22T18:18:01.472Z,12.10
2022-12-22T18:20:31.609Z,12.20
2022-12-22T18:23:02.507Z,12.10
2022-12-22T18:25:34.429Z,12.20
2022-12-22T18:28:03.807Z,12.30
2022-12-22T18:30:33.980Z,12.30
2022-12-22T18:33:04.511Z,12.30
2022-12-22T18:35:34.279Z,12.30
2022-12-22T18:38:02.759Z,12.20
2022-12-22T18:40:33.312Z,12.10
2022-12-22T18:43:02.579Z,12.10
2022-12-22T18:45:32.348Z,12.10
2022-12-22T18:48:00.536Z,12.10
2022-12-22T18:50:31.612Z,12.10
2022-12-22T18:53:02.828Z,12.00
2022-12-22T18:55:33.963Z,11.90
2022-12-22T18:58:02.823Z,11.90
2022-12-22T19:00:35.961Z,11.90
2022-12-22T19:03:14.473Z,11.80
2022-12-22T19:05:45.417Z,11.70
2022-12-22T19:08:16.598Z,11.60
2022-12-22T19:10:48.204Z,11.60
2022-12-22T19:13:28.244Z,11.50
2022-12-22T19:15:56.901Z,11.40
2022-12-22T19:18:27.430Z,11.40
2022-12-22T19:20:57.687Z,11.30
2022-12-22T19:23:26.771Z,11.40
2022-12-22T19:25:57.229Z,11.30
2022-12-22T19:28:34.281Z,11.30
2022-12-22T19:31:02.517Z,11.30
2022-12-22T19:33:36.239Z,11.30
2022-12-22T19:36:06.688Z,11.30
2022-12-22T19:38:36.334Z,11.30
2022-12-22T19:41:06.934Z,11.20
2022-12-22T19:43:35.129Z,11.30
2022-12-22T19:46:05.401Z,11.30
2022-12-22T19:48:33.596Z,11.30
2022-12-22T19:51:01.754Z,11.30
2022-12-22T19:53:31.305Z,11.20
2022-12-22T19:55:59.870Z,11.20
2022-12-22T19:58:33.961Z,11.20
2022-12-22T20:01:02.226Z,11.20
2022-12-22T20:03:30.674Z,11.10
2022-12-22T20:05:58.901Z,11.00
2022-12-22T20:08:27.086Z,11.00
2022-12-22T20:10:58.983Z,11.00
2022-12-22T20:13:32.178Z,11.00
2022-12-22T20:16:00.724Z,11.00
2022-12-22T20:18:30.575Z,11.00
2022-12-22T20:21:03.864Z,11.00
2022-12-22T20:23:35.162Z,10.80
2022-12-22T20:26:07.959Z,10.80
2022-12-22T20:28:38.014Z,10.80
2022-12-22T20:31:07.720Z,10.80
2022-12-22T20:33:36.213Z,10.70
2022-12-22T20:36:11.986Z,10.70
2022-12-22T20:38:42.707Z,10.70
2022-12-22T20:41:12.478Z,10.70
2022-12-22T20:43:41.714Z,10.50
2022-12-22T20:46:15.131Z,10.50
2022-12-22T20:48:45.913Z,10.50
2022-12-22T20:51:17.592Z,10.40
2022-12-22T20:53:47.557Z,10.50
2022-12-22T20:56:23.293Z,10.50
2022-12-22T20:58:52.101Z,10.50
2022-12-22T21:01:20.400Z,10.50
2022-12-22T21:03:48.964Z,10.40
2022-12-22T21:06:25.277Z,10.40
2022-12-22T21:08:54.255Z,10.40
2022-12-22T21:11:24.563Z,10.50
2022-12-22T21:13:53.024Z,10.50
2022-12-22T21:16:24.014Z,10.60
2022-12-22T21:18:53.427Z,10.60
2022-12-22T21:21:22.838Z,10.60
2022-12-22T21:23:50.997Z,10.60
2022-12-22T21:26:25.597Z,10.50
2022-12-22T21:28:54.598Z,10.50
2022-12-22T21:31:22.802Z,10.60
2022-12-22T21:33:51.659Z,10.60
2022-12-22T21:36:24.968Z,10.50
2022-12-22T21:38:56.693Z,10.50
2022-12-22T21:41:40.157Z,10.50
2022-12-22T21:44:08.322Z,10.50
2022-12-22T21:46:36.784Z,10.60
2022-12-22T21:49:05.000Z,10.50
2022-12-22T21:51:33.112Z,10.60
2022-12-22T21:54:01.257Z,10.60
2022-12-22T21:56:30.966Z,11.10
2022-12-22T21:59:03.748Z,11.10
2022-12-22T22:01:32.538Z,11.30
2022-12-22T22:04:00.804Z,11.30
2022-12-22T22:06:29.080Z,11.30
2022-12-22T22:08:57.273Z,11.40
2022-12-22T22:11:26.954Z,11.70
2022-12-22T22:13:56.508Z,11.80
2022-12-22T22:16:24.725Z,12.00
2022-12-22T22:18:53.182Z,12.10
2022-12-22T22:21:21.385Z,12.20
2022-12-22T22:23:49.513Z,12.20
2022-12-22T22:26:17.701Z,12.30
2022-12-22T22:28:45.893Z,12.30
2022-12-22T22:31:15.447Z,12.30
2022-12-22T22:33:43.637Z,12.30
2022-12-22T22:36:11.850Z,12.40
2022-12-22T22:38:40.442Z,12.40
2022-12-22T22:41:08.611Z,12.40
2022-12-22T22:43:36.757Z,12.50
2022-12-22T22:46:05.028Z,12.60
2022-12-22T22:48:34.788Z,12.60
2022-12-22T22:51:02.961Z,12.60
2022-12-22T22:53:31.847Z,12.60
2022-12-22T22:56:02.986Z,12.60
2022-12-22T22:58:31.364Z,12.60
2022-12-22T23:01:06.066Z,12.60
2022-12-22T23:03:36.400Z,12.60
2022-12-22T23:06:05.000Z,12.60
2022-12-22T23:08:33.931Z,12.70
2022-12-22T23:11:02.537Z,12.70
2022-12-22T23:13:30.968Z,12.70
2022-12-22T23:16:01.272Z,12.70
2022-12-22T23:18:30.303Z,12.70
2022-12-22T23:21:00.475Z,12.70
2022-12-22T23:23:29.827Z,12.70
2022-12-22T23:25:58.021Z,12.70
2022-12-22T23:28:26.917Z,12.70
2022-12-22T23:30:55.291Z,12.70
2022-12-22T23:33:23.594Z,12.80
2022-12-22T23:35:52.045Z,12.80
2022-12-22T23:38:22.360Z,12.80
2022-12-22T23:40:53.611Z,12.80
2022-12-22T23:43:23.795Z,12.80
2022-12-22T23:45:54.880Z,12.80
2022-12-22T23:48:22.980Z,12.90
2022-12-22T23:50:51.156Z,12.90
2022-12-22T23:53:20.999Z,12.90
2022-12-22T23:55:49.966Z,13.00
2022-12-22T23:58:18.582Z,13.00
